Time;durP1;ratioP1;P1;durP2;ratioP2;P2;SDS_P1;SDS_P2;PMS_P1;PMS_P2;Temp;Humidity;BMP_temperature;BMP_pressure;BME280_temperature;BME280_humidity;BME280_pressure;Samples;Min_cycle;Max_cycle;Signal;HPM_P1;HPM_P2
2021/11/24 00:01:55;;;;;;;11.47;7.93;;;8.60;99.90;;;;;;6121438;23;20245;-76
2021/11/24 00:04:21;;;;;;;10.63;8.27;;;8.60;99.90;;;;;;6122724;23;20553;-75
2021/11/24 00:06:46;;;;;;;12.47;7.70;;;8.60;99.90;;;;;;6120363;23;20194;-75
2021/11/24 00:09:12;;;;;;;10.33;8.53;;;8.60;99.90;;;;;;6119686;23;20165;-75
2021/11/24 00:11:38;;;;;;;10.40;7.03;;;8.50;99.90;;;;;;6121071;23;20280;-75
2021/11/24 00:14:06;;;;;;;8.70;6.90;;;8.50;99.90;;;;;;6122992;23;20178;-75
2021/11/24 00:16:34;;;;;;;9.80;7.30;;;8.50;99.90;;;;;;6121426;23;20182;-76
2021/11/24 00:18:59;;;;;;;11.20;7.33;;;8.50;99.90;;;;;;6121142;23;20546;-76
2021/11/24 00:21:28;;;;;;;11.80;8.07;;;8.50;99.90;;;;;;6144685;23;20620;-75
2021/11/24 00:23:53;;;;;;;11.63;7.53;;;8.50;99.90;;;;;;6121408;23;20219;-75
2021/11/24 00:26:19;;;;;;;10.13;7.57;;;8.50;99.90;;;;;;6122895;23;20869;-75
2021/11/24 00:28:47;;;;;;;10.20;7.70;;;8.50;99.90;;;;;;6123036;23;20164;-75
2021/11/24 00:31:15;;;;;;;10.40;7.50;;;8.50;99.90;;;;;;6144230;23;20199;-76
2021/11/24 00:33:44;;;;;;;7.97;7.10;;;8.50;99.90;;;;;;6120917;23;21158;-74
2021/11/24 00:36:12;;;;;;;10.87;6.97;;;8.40;99.90;;;;;;6120050;23;20665;-75
2021/11/24 00:38:40;;;;;;;11.73;7.60;;;8.50;99.90;;;;;;6120110;23;20688;-74
2021/11/24 00:41:06;;;;;;;11.87;8.20;;;8.50;99.90;;;;;;6119852;23;20592;-75
2021/11/24 00:43:34;;;;;;;9.10;7.50;;;8.40;99.90;;;;;;6122779;23;21060;-75
2021/11/24 00:46:02;;;;;;;8.50;7.57;;;8.60;99.90;;;;;;6121490;23;20302;-75
2021/11/24 00:48:28;;;;;;;10.20;7.83;;;8.50;99.90;;;;;;6146074;23;20601;-75
2021/11/24 00:50:54;;;;;;;13.50;8.10;;;8.50;99.90;;;;;;6121817;23;20868;-75
2021/11/24 00:53:26;;;;;;;11.10;8.20;;;8.50;99.90;;;;;;6121059;23;20202;-75
2021/11/24 00:55:52;;;;;;;9.63;7.60;;;8.50;99.90;;;;;;6120966;23;20246;-75
2021/11/24 00:58:20;;;;;;;11.57;8.60;;;8.50;99.90;;;;;;6120618;23;20573;-75
2021/11/24 01:00:49;;;;;;;12.33;9.10;;;8.50;99.90;;;;;;6119261;23;20656;-75
2021/11/24 01:03:15;;;;;;;8.60;7.70;;;8.50;99.90;;;;;;6120879;23;20609;-76
2021/11/24 01:05:49;;;;;;;10.60;8.50;;;8.50;99.90;;;;;;6143972;23;20562;-75
2021/11/24 01:08:17;;;;;;;9.37;8.40;;;8.50;99.90;;;;;;6123235;23;20499;-75
2021/11/24 01:10:43;;;;;;;13.83;7.97;;;8.50;99.90;;;;;;6122417;23;20869;-76
2021/11/24 01:13:13;;;;;;;8.37;7.57;;;8.50;99.90;;;;;;6119774;23;20618;-75
2021/11/24 01:15:40;;;;;;;10.40;8.00;;;8.50;99.90;;;;;;6121981;23;20855;-75
2021/11/24 01:18:06;;;;;;;10.17;8.47;;;8.50;99.90;;;;;;6122388;23;20522;-75
2021/11/24 01:20:32;;;;;;;10.83;8.67;;;8.60;99.90;;;;;;6121125;23;21039;-75
2021/11/24 01:22:58;;;;;;;12.00;8.17;;;8.60;99.90;;;;;;6121030;23;20202;-75
2021/11/24 01:25:24;;;;;;;9.40;8.20;;;8.60;99.90;;;;;;6122336;23;20567;-75
2021/11/24 01:27:49;;;;;;;15.10;8.90;;;8.60;99.90;;;;;;6121861;23;20566;-75
2021/11/24 01:30:17;;;;;;;10.57;8.67;;;8.60;99.90;;;;;;6145884;23;20170;-75
2021/11/24 01:32:44;;;;;;;10.90;8.43;;;8.60;99.90;;;;;;6121865;23;20198;-75
2021/11/24 01:35:14;;;;;;;10.30;8.07;;;8.60;99.90;;;;;;6143668;23;20939;-75
2021/11/24 01:37:40;;;;;;;12.00;8.30;;;8.60;99.90;;;;;;6121477;23;21007;-75
2021/11/24 01:40:07;;;;;;;10.20;8.57;;;8.60;99.90;;;;;;6119540;23;20562;-75
2021/11/24 01:42:35;;;;;;;11.17;8.70;;;8.60;99.90;;;;;;6121753;23;20589;-74
2021/11/24 01:45:06;;;;;;;10.50;8.13;;;8.60;99.90;;;;;;6120250;23;20905;-75
2021/11/24 01:47:35;;;;;;;11.57;8.00;;;8.60;99.90;;;;;;6120543;23;20605;-75
2021/11/24 01:50:02;;;;;;;10.87;8.67;;;8.60;99.90;;;;;;6119405;23;20582;-75
2021/11/24 01:52:30;;;;;;;11.30;8.27;;;8.70;99.90;;;;;;6119612;23;21155;-75
2021/11/24 01:54:55;;;;;;;13.77;9.37;;;8.60;99.90;;;;;;6121170;23;21176;-75
2021/11/24 01:57:24;;;;;;;10.70;7.83;;;8.60;99.90;;;;;;6121902;23;20577;-74
2021/11/24 01:59:52;;;;;;;12.27;9.37;;;8.70;99.90;;;;;;6145492;23;20163;-74
2021/11/24 02:02:25;;;;;;;12.47;8.30;;;8.70;99.90;;;;;;6120997;23;20652;-75
2021/11/24 02:04:51;;;;;;;11.30;8.50;;;8.70;99.90;;;;;;6122016;23;20500;-75
2021/11/24 02:07:16;;;;;;;13.50;9.30;;;8.70;99.90;;;;;;6119558;23;20652;-75
2021/11/24 02:09:45;;;;;;;10.90;8.70;;;8.70;99.90;;;;;;6120127;23;20168;-75
2021/11/24 02:12:12;;;;;;;11.40;8.77;;;8.70;99.90;;;;;;6120526;23;20202;-75
2021/11/24 02:14:40;;;;;;;12.57;9.57;;;8.70;99.90;;;;;;6122727;23;20578;-75
2021/11/24 02:17:09;;;;;;;11.27;7.90;;;8.80;99.90;;;;;;6121961;23;20641;-74
2021/11/24 02:19:36;;;;;;;10.07;8.70;;;8.70;99.90;;;;;;6121032;23;21068;-74
2021/11/24 02:22:03;;;;;;;12.37;9.03;;;8.80;99.90;;;;;;6120810;23;21175;-76
2021/11/24 02:24:32;;;;;;;11.00;8.80;;;8.80;99.90;;;;;;6121495;23;20554;-75
2021/11/24 02:27:01;;;;;;;11.30;9.40;;;8.80;99.90;;;;;;6120108;23;20741;-74
2021/11/24 02:29:27;;;;;;;12.23;9.63;;;8.80;99.90;;;;;;6122332;23;20537;-75
2021/11/24 02:31:57;;;;;;;11.93;9.00;;;8.80;99.90;;;;;;6118843;23;20594;-75
2021/11/24 02:34:23;;;;;;;14.33;9.17;;;8.80;99.90;;;;;;6119961;23;20728;-75
2021/11/24 02:36:52;;;;;;;13.90;8.80;;;8.80;99.90;;;;;;6121242;23;20590;-75
2021/11/24 02:39:21;;;;;;;11.13;9.67;;;8.80;99.90;;;;;;6121623;23;20739;-76
2021/11/24 02:41:54;;;;;;;12.40;9.03;;;8.80;99.90;;;;;;6119040;23;20940;-75
2021/11/24 02:44:38;;;;;;;12.13;9.73;;;8.80;99.90;;;;;;6144538;23;20586;-75
2021/11/24 02:47:22;;;;;;;11.90;9.97;;;8.80;99.90;;;;;;6120454;23;20601;-75
2021/11/24 02:49:55;;;;;;;15.33;9.97;;;8.80;99.90;;;;;;6121934;23;20843;-75
2021/11/24 02:52:25;;;;;;;12.90;8.97;;;8.80;99.90;;;;;;6119241;23;20598;-75
2021/11/24 02:54:57;;;;;;;12.90;9.30;;;8.80;99.90;;;;;;6121684;23;20586;-75
2021/11/24 02:57:32;;;;;;;11.70;9.20;;;8.80;99.90;;;;;;6120891;23;20633;-74
2021/11/24 02:59:59;;;;;;;12.47;8.60;;;8.80;99.90;;;;;;6121577;23;20562;-76
2021/11/24 03:02:32;;;;;;;10.73;8.77;;;8.80;99.90;;;;;;6120852;23;20594;-75
2021/11/24 03:05:00;;;;;;;11.10;8.27;;;8.80;99.90;;;;;;6118918;23;20578;-75
2021/11/24 03:07:33;;;;;;;10.77;9.00;;;8.90;99.90;;;;;;6122185;23;20582;-75
2021/11/24 03:10:05;;;;;;;12.67;9.57;;;8.90;99.90;;;;;;6119356;23;20959;-75
2021/11/24 03:12:34;;;;;;;13.27;10.90;;;8.90;99.90;;;;;;6116753;23;20597;-76
2021/11/24 03:15:00;;;;;;;14.17;9.70;;;8.90;99.90;;;;;;6121895;23;20669;-75
2021/11/24 03:17:28;;;;;;;13.43;10.93;;;8.90;99.90;;;;;;6143004;23;20626;-75
2021/11/24 03:19:56;;;;;;;14.30;10.77;;;8.90;99.90;;;;;;6121257;23;20970;-75
2021/11/24 03:22:27;;;;;;;17.17;12.13;;;8.80;99.90;;;;;;6118465;23;20593;-75
2021/11/24 03:24:56;;;;;;;14.90;10.93;;;8.80;99.90;;;;;;6121290;23;20591;-75
2021/11/24 03:27:24;;;;;;;13.73;10.80;;;8.80;99.90;;;;;;6120367;23;20562;-75
2021/11/24 03:29:53;;;;;;;13.40;10.50;;;8.80;99.90;;;;;;6119977;23;20542;-75
2021/11/24 03:32:22;;;;;;;12.00;10.23;;;8.80;99.90;;;;;;6120224;23;21169;-75
2021/11/24 03:34:57;;;;;;;10.97;8.90;;;8.80;99.90;;;;;;6120460;23;20902;-75
2021/11/24 03:37:23;;;;;;;14.77;9.70;;;8.80;99.90;;;;;;6119850;23;20669;-76
2021/11/24 03:39:52;;;;;;;13.20;9.60;;;8.80;99.90;;;;;;6120200;23;20699;-75
2021/11/24 03:42:18;;;;;;;12.53;9.57;;;8.80;99.90;;;;;;6120168;23;20210;-75
2021/11/24 03:44:44;;;;;;;10.20;8.27;;;8.80;99.90;;;;;;6117965;23;20573;-76
2021/11/24 03:47:10;;;;;;;10.10;7.90;;;8.80;99.90;;;;;;6121477;23;20574;-75
2021/11/24 03:49:41;;;;;;;10.53;7.60;;;8.90;99.90;;;;;;6119610;23;20985;-75
2021/11/24 03:52:07;;;;;;;11.00;8.90;;;8.90;99.90;;;;;;6115775;23;20706;-75
2021/11/24 03:54:33;;;;;;;11.37;8.50;;;8.90;99.90;;;;;;6118553;23;20929;-75
2021/11/24 03:56:59;;;;;;;11.37;8.50;;;8.90;99.90;;;;;;6120317;23;20659;-75
2021/11/24 03:59:25;;;;;;;11.17;8.80;;;9.00;99.90;;;;;;6120836;23;21064;-75
2021/11/24 04:01:51;;;;;;;11.20;8.30;;;8.90;99.90;;;;;;6116929;23;20598;-75
2021/11/24 04:04:17;;;;;;;10.30;8.70;;;8.90;99.90;;;;;;6121288;23;20656;-75
2021/11/24 04:06:42;;;;;;;11.43;8.67;;;8.90;99.90;;;;;;6119554;23;20190;-76
2021/11/24 04:09:08;;;;;;;8.97;7.70;;;8.90;99.90;;;;;;6119805;23;20294;-75
2021/11/24 04:11:39;;;;;;;11.40;8.90;;;8.90;99.90;;;;;;6118035;23;21163;-76
2021/11/24 04:14:11;;;;;;;11.50;8.40;;;8.90;99.90;;;;;;6120599;23;20170;-75
2021/11/24 04:16:39;;;;;;;10.20;7.30;;;8.90;99.90;;;;;;6120949;23;20562;-74
2021/11/24 04:19:05;;;;;;;11.90;8.50;;;8.90;99.90;;;;;;6121209;23;20537;-75
2021/11/24 04:21:31;;;;;;;12.00;9.50;;;8.80;99.90;;;;;;6117376;23;20585;-75
2021/11/24 04:23:58;;;;;;;10.53;8.20;;;8.90;99.90;;;;;;6143287;23;20609;-75
2021/11/24 04:26:29;;;;;;;10.43;8.50;;;8.80;99.90;;;;;;6119868;23;20661;-75
2021/11/24 04:28:55;;;;;;;9.77;8.00;;;8.80;99.90;;;;;;6118174;23;20590;-75
2021/11/24 04:31:21;;;;;;;10.80;7.90;;;8.80;99.90;;;;;;6117711;23;21213;-75
2021/11/24 04:33:47;;;;;;;12.00;7.90;;;8.90;99.90;;;;;;6119158;23;20371;-76
2021/11/24 04:36:13;;;;;;;11.03;8.27;;;8.90;99.90;;;;;;6120192;23;20598;-75
2021/11/24 04:38:39;;;;;;;12.00;9.10;;;8.90;99.90;;;;;;6118913;23;20563;-75
2021/11/24 04:41:09;;;;;;;10.97;8.23;;;8.90;99.90;;;;;;6116785;23;20570;-75
2021/11/24 04:43:42;;;;;;;11.40;8.50;;;8.90;99.90;;;;;;6118687;23;20637;-75
2021/11/24 04:46:15;;;;;;;11.27;8.00;;;8.90;99.90;;;;;;6121491;23;20665;-75
2021/11/24 04:48:43;;;;;;;11.70;7.57;;;8.90;99.90;;;;;;6120828;23;20495;-75
2021/11/24 04:51:13;;;;;;;8.40;7.37;;;8.80;99.90;;;;;;6117947;23;20561;-75
2021/11/24 04:53:38;;;;;;;10.13;7.43;;;8.80;99.90;;;;;;6122812;23;20527;-74
2021/11/24 04:56:08;;;;;;;10.77;8.67;;;8.80;99.90;;;;;;6126377;23;20620;-75
2021/11/24 04:58:40;;;;;;;11.93;9.50;;;8.80;99.90;;;;;;6122554;23;20566;-76
2021/11/24 05:01:06;;;;;;;11.40;9.03;;;8.80;99.90;;;;;;6145285;23;20554;-75
2021/11/24 05:03:31;;;;;;;11.80;9.67;;;8.80;99.90;;;;;;6120542;23;20566;-75
2021/11/24 05:06:04;;;;;;;11.20;9.10;;;8.90;99.90;;;;;;6119957;23;20278;-74
2021/11/24 05:08:39;;;;;;;11.90;9.73;;;8.90;99.90;;;;;;6144346;23;20150;-75
2021/11/24 05:11:09;;;;;;;12.20;8.83;;;8.90;99.90;;;;;;6122441;23;20533;-75
2021/11/24 05:13:39;;;;;;;12.50;9.57;;;8.90;99.90;;;;;;6119388;23;20624;-75
2021/11/24 05:16:08;;;;;;;10.33;8.47;;;8.90;99.90;;;;;;6118691;23;20664;-75
2021/11/24 05:18:44;;;;;;;11.83;8.67;;;8.90;99.90;;;;;;6121364;23;20562;-76
2021/11/24 05:21:34;;;;;;;12.43;8.80;;;8.90;99.90;;;;;;6144517;23;20637;-75
2021/11/24 05:24:03;;;;;;;11.40;8.60;;;9.00;99.90;;;;;;6121317;23;20894;-74
2021/11/24 05:26:35;;;;;;;10.33;8.20;;;8.90;99.90;;;;;;6121670;23;20673;-75
2021/11/24 05:29:01;;;;;;;11.57;8.43;;;8.90;99.90;;;;;;6120411;23;21107;-75
2021/11/24 05:31:28;;;;;;;10.23;8.00;;;9.00;99.90;;;;;;6124455;23;20600;-76
2021/11/24 05:33:53;;;;;;;10.30;7.47;;;8.90;99.90;;;;;;6130024;23;20182;-74
2021/11/24 05:36:21;;;;;;;10.20;8.17;;;8.80;99.90;;;;;;6119871;23;20624;-76
2021/11/24 05:38:49;;;;;;;9.03;7.53;;;8.80;99.90;;;;;;6121647;23;20178;-75
2021/11/24 05:41:15;;;;;;;12.17;8.03;;;8.80;99.90;;;;;;6118789;23;20535;-75
2021/11/24 05:43:43;;;;;;;9.97;7.70;;;8.80;99.90;;;;;;6119671;23;20558;-76
2021/11/24 05:46:16;;;;;;;9.80;8.07;;;8.90;99.90;;;;;;6121419;23;20605;-76
2021/11/24 05:48:48;;;;;;;9.60;7.93;;;8.90;99.90;;;;;;6120721;23;20689;-75
2021/11/24 05:51:14;;;;;;;9.83;6.90;;;8.90;99.90;;;;;;6119928;23;20530;-75
2021/11/24 05:53:43;;;;;;;10.13;7.40;;;8.90;99.90;;;;;;6121529;23;20534;-75
2021/11/24 05:56:09;;;;;;;9.57;8.13;;;8.90;99.90;;;;;;6121727;23;21151;-75
2021/11/24 05:58:37;;;;;;;9.60;7.80;;;8.80;99.90;;;;;;6145229;23;20566;-75
2021/11/24 06:01:03;;;;;;;10.90;8.63;;;8.80;99.90;;;;;;6119613;23;20178;-74
2021/11/24 06:03:29;;;;;;;12.50;10.47;;;8.80;99.90;;;;;;6117043;23;20998;-75
2021/11/24 06:05:54;;;;;;;11.63;8.80;;;8.80;99.90;;;;;;6117561;23;20604;-75
2021/11/24 06:08:20;;;;;;;12.60;10.80;;;8.70;99.90;;;;;;6116189;23;20162;-75
2021/11/24 06:10:49;;;;;;;14.07;11.03;;;8.70;99.90;;;;;;6121029;23;20619;-75
2021/11/24 06:13:22;;;;;;;12.17;10.53;;;8.70;99.90;;;;;;6118667;23;20948;-75
2021/11/24 06:15:48;;;;;;;11.63;10.23;;;8.70;99.90;;;;;;6116576;23;20515;-76
2021/11/24 06:18:16;;;;;;;14.30;11.47;;;8.70;99.90;;;;;;6122890;23;20596;-75
2021/11/24 06:20:42;;;;;;;11.83;10.43;;;8.80;99.90;;;;;;6120191;23;20158;-75
2021/11/24 06:23:09;;;;;;;12.70;9.90;;;8.80;99.90;;;;;;6120175;23;20640;-75
2021/11/24 06:25:35;;;;;;;12.80;9.70;;;8.80;99.90;;;;;;6122907;23;20526;-75
2021/11/24 06:28:01;;;;;;;13.03;11.07;;;8.80;99.90;;;;;;6122910;23;20566;-75
2021/11/24 06:30:27;;;;;;;12.30;10.43;;;8.80;99.90;;;;;;6119454;23;20177;-75
2021/11/24 06:32:53;;;;;;;13.60;10.53;;;8.90;99.90;;;;;;6117343;23;20209;-74
2021/11/24 06:35:18;;;;;;;11.83;10.07;;;8.90;99.90;;;;;;6120503;23;20593;-75
2021/11/24 06:37:44;;;;;;;12.70;10.37;;;8.90;99.90;;;;;;6120004;23;20614;-75
2021/11/24 06:40:10;;;;;;;11.87;10.07;;;8.90;99.90;;;;;;6117778;23;20220;-74
2021/11/24 06:42:37;;;;;;;11.83;10.03;;;8.90;99.90;;;;;;6118687;23;20649;-74
2021/11/24 06:45:03;;;;;;;14.63;10.90;;;8.90;99.90;;;;;;6113515;23;20558;-74
2021/11/24 06:47:28;;;;;;;13.60;9.60;;;8.90;99.90;;;;;;6117858;23;20593;-74
2021/11/24 06:49:54;;;;;;;12.10;10.73;;;8.90;99.90;;;;;;6114823;23;20919;-74
2021/11/24 06:52:20;;;;;;;10.73;9.63;;;9.00;99.90;;;;;;6115950;23;20225;-74
2021/11/24 06:54:45;;;;;;;11.20;9.63;;;9.00;99.90;;;;;;6121577;23;20189;-74
2021/11/24 06:57:11;;;;;;;10.90;9.60;;;9.00;99.90;;;;;;6120034;23;20178;-74
2021/11/24 06:59:37;;;;;;;10.67;8.93;;;9.00;99.90;;;;;;6118712;23;20201;-74
2021/11/24 07:02:03;;;;;;;11.53;9.70;;;9.00;99.90;;;;;;6118819;23;20202;-74
2021/11/24 07:04:29;;;;;;;11.83;9.87;;;9.00;99.90;;;;;;6121849;23;20158;-73
2021/11/24 07:06:54;;;;;;;11.20;9.30;;;9.00;99.90;;;;;;6121192;23;20604;-75
2021/11/24 07:09:22;;;;;;;12.50;9.70;;;9.00;99.90;;;;;;6120363;23;20162;-74
2021/11/24 07:11:48;;;;;;;12.20;10.00;;;9.00;99.90;;;;;;6116705;23;20225;-74
2021/11/24 07:14:14;;;;;;;12.90;10.70;;;9.00;99.90;;;;;;6118932;23;21017;-74
2021/11/24 07:16:42;;;;;;;12.13;10.80;;;9.00;99.90;;;;;;6119752;23;21005;-74
2021/11/24 07:19:08;;;;;;;12.73;10.23;;;8.90;99.90;;;;;;6119621;23;20553;-75
2021/11/24 07:21:34;;;;;;;13.33;10.40;;;8.90;99.90;;;;;;6117791;23;20604;-74
2021/11/24 07:24:00;;;;;;;13.83;10.10;;;8.90;99.90;;;;;;6120027;23;20635;-74
2021/11/24 07:26:26;;;;;;;14.10;11.73;;;8.90;99.90;;;;;;6121124;23;20590;-74
2021/11/24 07:28:52;;;;;;;14.47;11.00;;;8.90;99.90;;;;;;6119717;23;20193;-74
2021/11/24 07:31:17;;;;;;;15.10;11.27;;;8.90;99.90;;;;;;6114370;23;20188;-74
2021/11/24 07:33:43;;;;;;;15.90;12.27;;;8.90;99.90;;;;;;6116373;23;20205;-75
2021/11/24 07:36:08;;;;;;;15.23;12.33;;;8.90;99.90;;;;;;6116768;23;20190;-75
2021/11/24 07:38:35;;;;;;;15.67;12.00;;;8.90;99.90;;;;;;6117442;23;20164;-75
2021/11/24 07:41:00;;;;;;;16.10;12.00;;;9.00;99.90;;;;;;6118884;23;20589;-75
2021/11/24 07:43:26;;;;;;;16.87;12.00;;;8.90;99.90;;;;;;6120006;23;20558;-75
2021/11/24 07:45:52;;;;;;;15.93;11.63;;;8.80;99.90;;;;;;6119589;23;20236;-75
2021/11/24 07:48:18;;;;;;;17.17;12.97;;;8.80;99.90;;;;;;6120751;23;20169;-76
2021/11/24 07:50:44;;;;;;;15.20;12.07;;;8.90;99.90;;;;;;6117926;23;21056;-76
2021/11/24 07:53:10;;;;;;;16.07;13.30;;;8.90;99.90;;;;;;6120543;23;20656;-76
2021/11/24 07:55:36;;;;;;;16.27;12.53;;;8.90;99.90;;;;;;6117153;23;20617;-75
2021/11/24 07:58:04;;;;;;;15.50;12.40;;;8.90;99.90;;;;;;6115220;23;21162;-76
2021/11/24 08:00:30;;;;;;;15.43;12.00;;;8.90;99.90;;;;;;6113188;23;20185;-76
2021/11/24 08:02:55;;;;;;;17.50;11.80;;;8.90;99.90;;;;;;6114356;23;21088;-76
2021/11/24 08:05:21;;;;;;;13.70;11.20;;;8.90;99.90;;;;;;6115283;23;20235;-76
2021/11/24 08:07:47;;;;;;;17.40;12.37;;;8.90;99.90;;;;;;6117731;23;20182;-76
2021/11/24 08:10:12;;;;;;;15.80;12.63;;;8.90;99.90;;;;;;6118702;23;20274;-75
2021/11/24 08:12:39;;;;;;;17.57;12.40;;;8.90;99.90;;;;;;6119075;23;20273;-76
2021/11/24 08:15:07;;;;;;;14.67;11.63;;;8.90;99.90;;;;;;6117350;23;20204;-76
2021/11/24 08:17:32;;;;;;;15.03;12.50;;;8.90;99.90;;;;;;6119839;23;21130;-75
2021/11/24 08:19:59;;;;;;;14.43;11.77;;;8.90;99.90;;;;;;6120942;23;20570;-75
2021/11/24 08:22:25;;;;;;;16.67;12.60;;;8.90;99.90;;;;;;6119207;23;20208;-75
2021/11/24 08:24:51;;;;;;;16.70;12.57;;;8.90;99.90;;;;;;6117240;23;21090;-75
2021/11/24 08:27:17;;;;;;;17.93;12.87;;;8.90;99.90;;;;;;6119466;23;20202;-76
2021/11/24 08:29:43;;;;;;;16.07;12.23;;;8.90;99.90;;;;;;6115219;23;20678;-76
2021/11/24 08:32:08;;;;;;;16.00;12.83;;;8.80;99.90;;;;;;6118111;23;20209;-76
2021/11/24 08:34:34;;;;;;;18.57;11.97;;;8.80;99.90;;;;;;6116189;23;20245;-76
2021/11/24 08:37:01;;;;;;;14.80;11.70;;;8.90;99.90;;;;;;6115607;23;20233;-75
2021/11/24 08:39:27;;;;;;;15.23;11.90;;;8.90;99.90;;;;;;6120115;23;20613;-75
2021/11/24 08:41:53;;;;;;;15.73;12.83;;;8.90;99.90;;;;;;6118552;23;20590;-75
2021/11/24 08:44:18;;;;;;;15.53;12.27;;;8.90;99.90;;;;;;6121771;23;20533;-75
2021/11/24 08:46:47;;;;;;;16.80;12.40;;;8.90;99.90;;;;;;6121205;23;20951;-75
2021/11/24 08:49:13;;;;;;;15.80;12.07;;;8.90;99.90;;;;;;6121346;23;20265;-75
2021/11/24 08:51:39;;;;;;;16.57;11.97;;;8.90;99.90;;;;;;6119909;23;20636;-76
2021/11/24 08:54:09;;;;;;;17.57;13.97;;;8.90;99.90;;;;;;6119627;23;20213;-76
2021/11/24 08:56:35;;;;;;;15.40;11.90;;;9.00;99.90;;;;;;6121159;23;20582;-75
2021/11/24 08:59:04;;;;;;;15.17;12.27;;;9.00;99.90;;;;;;6119082;23;20645;-76
2021/11/24 09:01:31;;;;;;;17.30;13.07;;;8.90;99.90;;;;;;6119236;23;21142;-76
2021/11/24 09:03:57;;;;;;;17.37;12.90;;;9.00;99.90;;;;;;6116829;23;20561;-76
2021/11/24 09:06:22;;;;;;;18.20;13.33;;;9.00;99.90;;;;;;6117333;23;20585;-76
2021/11/24 09:08:48;;;;;;;17.40;13.40;;;9.00;99.90;;;;;;6117754;23;20605;-75
2021/11/24 09:11:14;;;;;;;18.30;13.93;;;8.90;99.90;;;;;;6119275;23;20229;-76
2021/11/24 09:13:39;;;;;;;18.87;13.93;;;9.00;99.90;;;;;;6122578;23;20652;-75
2021/11/24 09:16:05;;;;;;;17.20;13.50;;;9.00;99.90;;;;;;6121692;23;20174;-75
2021/11/24 09:18:31;;;;;;;19.10;13.70;;;9.00;99.90;;;;;;6122428;23;20171;-75
2021/11/24 09:20:57;;;;;;;17.77;13.87;;;9.10;99.90;;;;;;6121958;23;20167;-75
2021/11/24 09:23:24;;;;;;;17.77;13.13;;;9.10;99.90;;;;;;6120743;23;20605;-75
2021/11/24 09:25:53;;;;;;;16.57;13.07;;;9.00;99.90;;;;;;6122574;23;20536;-75
2021/11/24 09:28:20;;;;;;;17.70;13.30;;;9.00;99.90;;;;;;6121704;23;20661;-75
2021/11/24 09:30:47;;;;;;;16.83;13.00;;;9.10;99.90;;;;;;6145980;23;20882;-75
2021/11/24 09:33:13;;;;;;;16.40;12.63;;;9.10;99.90;;;;;;6119334;23;20606;-76
2021/11/24 09:35:39;;;;;;;15.90;12.77;;;9.00;99.90;;;;;;6141897;23;20967;-76
2021/11/24 09:38:06;;;;;;;16.57;13.47;;;9.00;99.90;;;;;;6119288;23;20158;-76
2021/11/24 09:40:32;;;;;;;16.43;12.27;;;9.10;99.90;;;;;;6118575;23;20158;-76
2021/11/24 09:43:05;;;;;;;16.07;12.67;;;9.10;99.90;;;;;;6117723;23;20598;-75
2021/11/24 09:45:31;;;;;;;16.33;11.80;;;9.20;99.90;;;;;;6120755;23;20577;-76
2021/11/24 09:48:00;;;;;;;13.77;10.37;;;9.10;99.90;;;;;;6121680;23;20566;-76
2021/11/24 09:50:29;;;;;;;16.50;12.40;;;9.20;99.90;;;;;;6121656;23;20246;-76
2021/11/24 09:52:57;;;;;;;15.80;11.57;;;9.10;99.90;;;;;;6121105;23;20604;-75
2021/11/24 09:55:25;;;;;;;12.77;10.60;;;9.20;99.90;;;;;;6121034;23;21039;-75
2021/11/24 09:57:53;;;;;;;14.43;10.90;;;9.20;99.90;;;;;;6122916;23;20586;-75
2021/11/24 10:00:20;;;;;;;13.53;10.70;;;9.20;99.90;;;;;;6119623;23;20573;-75
2021/11/24 10:02:46;;;;;;;13.67;10.33;;;9.20;99.90;;;;;;6120335;23;21205;-76
2021/11/24 10:05:12;;;;;;;14.43;11.07;;;9.20;99.90;;;;;;6122313;23;20542;-75
2021/11/24 10:07:41;;;;;;;12.83;10.00;;;9.20;99.90;;;;;;6122335;23;20574;-75
2021/11/24 10:10:07;;;;;;;13.63;9.37;;;9.20;99.90;;;;;;6120801;23;20958;-75
2021/11/24 10:12:33;;;;;;;12.67;10.00;;;9.30;99.90;;;;;;6120515;23;20986;-76
2021/11/24 10:15:01;;;;;;;11.60;9.67;;;9.40;99.90;;;;;;6121292;23;20617;-75
2021/11/24 10:17:27;;;;;;;14.33;10.60;;;9.50;99.90;;;;;;6120379;23;20218;-76
2021/11/24 10:20:00;;;;;;;13.73;9.63;;;9.50;99.90;;;;;;6142161;23;20562;-76
2021/11/24 10:22:26;;;;;;;11.90;9.50;;;9.50;99.90;;;;;;6121809;23;20640;-75
2021/11/24 10:25:05;;;;;;;10.67;8.37;;;9.50;99.90;;;;;;6120796;23;20543;-75
2021/11/24 10:27:47;;;;;;;11.67;8.63;;;9.50;99.90;;;;;;6121155;23;20566;-75
2021/11/24 10:30:27;;;;;;;11.20;9.33;;;9.60;99.90;;;;;;6120455;23;20546;-75
2021/11/24 10:32:53;;;;;;;12.10;8.90;;;9.60;99.90;;;;;;6119740;23;20685;-76
2021/11/24 10:35:29;;;;;;;11.07;9.10;;;9.60;99.90;;;;;;6122070;23;20617;-74
2021/11/24 10:38:15;;;;;;;10.87;9.07;;;9.70;99.90;;;;;;6120548;23;20637;-75
2021/11/24 10:40:45;;;;;;;9.63;8.30;;;9.60;99.90;;;;;;6121864;23;20538;-76
2021/11/24 10:43:13;;;;;;;11.90;9.90;;;9.70;99.90;;;;;;6117710;23;20693;-76
2021/11/24 10:45:50;;;;;;;11.80;9.30;;;9.70;99.90;;;;;;6122408;23;20526;-75
2021/11/24 10:48:27;;;;;;;9.37;8.10;;;9.80;99.90;;;;;;6124101;23;20506;-75
2021/11/24 10:50:55;;;;;;;12.23;9.17;;;9.80;99.90;;;;;;6120041;23;20562;-75
2021/11/24 10:53:21;;;;;;;10.07;8.17;;;9.80;99.90;;;;;;6116892;23;20928;-75
2021/11/24 10:55:47;;;;;;;8.57;7.50;;;9.80;99.90;;;;;;6119494;23;21147;-76
2021/11/24 10:58:24;;;;;;;9.70;7.63;;;9.80;99.90;;;;;;6119761;23;20885;-76
2021/11/24 11:00:56;;;;;;;9.40;7.90;;;9.80;99.90;;;;;;6120355;23;20582;-76
2021/11/24 11:03:36;;;;;;;11.63;8.30;;;9.80;99.90;;;;;;6119897;23;20594;-75
2021/11/24 11:06:02;;;;;;;8.30;7.10;;;9.70;99.90;;;;;;6122611;23;20561;-76
2021/11/24 11:08:29;;;;;;;10.00;7.40;;;9.70;99.90;;;;;;6121407;23;20547;-76
2021/11/24 11:10:59;;;;;;;9.73;7.10;;;9.70;99.90;;;;;;6121672;23;21062;-75
2021/11/24 11:13:30;;;;;;;8.67;6.77;;;9.70;99.90;;;;;;6120338;23;20186;-75
2021/11/24 11:15:57;;;;;;;9.07;6.70;;;9.80;99.90;;;;;;6118903;23;20629;-76
2021/11/24 11:18:32;;;;;;;8.70;6.07;;;9.80;99.90;;;;;;6123161;23;20585;-76
2021/11/24 11:21:01;;;;;;;13.20;7.13;;;9.90;99.90;;;;;;6122732;23;20511;-75
2021/11/24 11:23:28;;;;;;;7.67;6.33;;;9.90;99.90;;;;;;6125736;23;20586;-76
2021/11/24 11:25:57;;;;;;;7.27;6.10;;;9.90;99.90;;;;;;6122399;23;20570;-76
2021/11/24 11:28:30;;;;;;;6.93;6.20;;;9.90;99.90;;;;;;6118192;23;20565;-76
2021/11/24 11:30:57;;;;;;;5.80;5.20;;;9.90;99.90;;;;;;6115795;23;20562;-76
2021/11/24 11:33:33;;;;;;;6.30;4.50;;;10.00;99.90;;;;;;6116961;23;20602;-76
2021/11/24 11:36:03;;;;;;;6.53;5.07;;;10.00;99.90;;;;;;6117979;23;20611;-75
2021/11/24 11:38:30;;;;;;;5.40;4.43;;;10.00;99.90;;;;;;6119185;23;21190;-75
2021/11/24 11:40:56;;;;;;;4.93;4.33;;;10.10;99.90;;;;;;6117249;23;20554;-76
2021/11/24 11:43:24;;;;;;;6.43;5.23;;;10.10;99.90;;;;;;6117430;23;20586;-76
2021/11/24 11:45:50;;;;;;;7.13;5.20;;;10.10;99.90;;;;;;6122196;23;20174;-75
2021/11/24 11:48:29;;;;;;;5.73;4.97;;;10.10;99.90;;;;;;6120114;23;20554;-75
2021/11/24 11:51:00;;;;;;;5.53;4.60;;;10.10;99.90;;;;;;6118468;23;21083;-74
2021/11/24 11:53:33;;;;;;;4.93;4.40;;;10.10;99.90;;;;;;6129379;23;20709;-76
2021/11/24 11:56:19;;;;;;;4.93;4.20;;;10.00;99.90;;;;;;6118659;23;20585;-76
2021/11/24 11:58:56;;;;;;;5.10;3.90;;;10.10;99.90;;;;;;6120683;23;20546;-75
2021/11/24 12:01:27;;;;;;;4.23;3.80;;;10.00;99.90;;;;;;6116184;23;20620;-75
2021/11/24 12:04:15;;;;;;;3.87;3.17;;;10.00;99.90;;;;;;6118127;23;20554;-75
2021/11/24 12:06:51;;;;;;;4.63;4.23;;;9.90;99.90;;;;;;6119077;23;20570;-75
2021/11/24 12:09:32;;;;;;;4.23;3.63;;;9.90;99.90;;;;;;6118810;23;20554;-75
2021/11/24 12:12:07;;;;;;;4.73;3.90;;;9.90;99.90;;;;;;6116425;23;20927;-76
2021/11/24 12:14:41;;;;;;;5.63;4.03;;;9.90;99.90;;;;;;6119120;23;20692;-75
2021/11/24 12:17:32;;;;;;;4.87;4.37;;;10.00;99.90;;;;;;6120032;23;20705;-75
2021/11/24 12:20:03;;;;;;;4.93;4.40;;;10.00;99.90;;;;;;6119930;23;20581;-76
2021/11/24 12:22:44;;;;;;;5.90;5.30;;;10.00;99.90;;;;;;6117264;23;20705;-76
2021/11/24 12:25:19;;;;;;;5.87;5.17;;;10.00;99.90;;;;;;6115606;23;20597;-76
2021/11/24 12:27:53;;;;;;;8.10;5.70;;;9.90;99.90;;;;;;6117309;23;20673;-76
2021/11/24 12:33:12;;;;;;;7.57;5.80;;;10.00;99.90;;;;;;6117334;23;21214;-76
2021/11/24 12:35:45;;;;;;;5.47;4.80;;;10.00;99.90;;;;;;6118852;23;20617;-75
2021/11/24 12:38:11;;;;;;;6.23;5.33;;;10.00;99.90;;;;;;6143007;23;20597;-76
2021/11/24 12:40:39;;;;;;;6.87;5.90;;;10.00;99.90;;;;;;6117028;23;20581;-76
2021/11/24 12:43:07;;;;;;;6.90;6.00;;;10.00;99.90;;;;;;6116558;23;21190;-75
2021/11/24 12:45:34;;;;;;;6.87;5.93;;;10.10;99.90;;;;;;6117738;23;20626;-75
2021/11/24 12:48:05;;;;;;;7.83;6.37;;;10.00;99.90;;;;;;6117830;23;20696;-75
2021/11/24 12:50:32;;;;;;;8.40;6.60;;;10.00;99.90;;;;;;6116079;23;20550;-76
2021/11/24 12:53:06;;;;;;;8.10;5.40;;;10.00;99.90;;;;;;6117444;23;21111;-75
2021/11/24 12:55:34;;;;;;;7.90;5.93;;;10.00;99.90;;;;;;6117122;23;20712;-76